createdAt,value
2022-10-12T00:12:29.324Z,98999.00
2022-10-12T00:27:30.301Z,98997.00
2022-10-12T00:34:39.973Z,99004.00
2022-10-12T00:38:32.217Z,99006.00
2022-10-12T00:41:41.727Z,99005.00
2022-10-12T00:45:04.722Z,98998.00
2022-10-12T00:47:59.782Z,99006.00
2022-10-12T00:51:02.764Z,99003.00
2022-10-12T00:57:04.808Z,99006.00
2022-10-12T01:00:16.296Z,99011.00
2022-10-12T01:02:57.312Z,99010.00
2022-10-12T01:05:31.897Z,99009.00
2022-10-12T01:08:18.298Z,99022.00
2022-10-12T01:11:06.340Z,99023.00
2022-10-12T01:13:45.778Z,99023.00
2022-10-12T01:17:15.907Z,99015.00
2022-10-12T01:21:12.420Z,99021.00
2022-10-12T01:24:41.863Z,99024.00
2022-10-12T01:28:36.120Z,99017.00
2022-10-12T01:31:37.349Z,99020.00
2022-10-12T01:34:49.496Z,99021.00
2022-10-12T01:38:17.690Z,99018.00
2022-10-12T01:41:48.843Z,99022.00
2022-10-12T01:44:42.930Z,99010.00
2022-10-12T01:47:20.929Z,99011.00
2022-10-12T01:49:58.525Z,99017.00
2022-10-12T01:52:58.755Z,98998.00
2022-10-12T01:56:15.360Z,99011.00
2022-10-12T01:59:47.330Z,99023.00
2022-10-12T02:03:14.493Z,99008.00
2022-10-12T02:06:53.832Z,99016.00
2022-10-12T02:09:40.234Z,99025.00
2022-10-12T02:12:32.063Z,99013.00
2022-10-12T02:15:26.249Z,99015.00
2022-10-12T02:17:56.981Z,99012.00
2022-10-12T02:20:37.547Z,99014.00
2022-10-12T02:23:12.580Z,99003.00
2022-10-12T02:26:00.825Z,99004.00
2022-10-12T02:29:13.340Z,99006.00
2022-10-12T02:33:17.157Z,98995.00
2022-10-12T02:36:03.253Z,99009.00
2022-10-12T02:38:51.292Z,99005.00
2022-10-12T02:42:02.171Z,99006.00
2022-10-12T02:44:44.677Z,99005.00
2022-10-12T02:47:39.649Z,99006.00
2022-10-12T02:50:11.951Z,99001.00
2022-10-12T02:52:55.898Z,99004.00
2022-10-12T02:55:46.497Z,99003.00
2022-10-12T02:58:25.014Z,99004.00
2022-10-12T03:01:11.674Z,98999.00
2022-10-12T03:04:09.184Z,98996.00
2022-10-12T03:06:55.480Z,98996.00
2022-10-12T03:09:39.426Z,98998.00
2022-10-12T03:12:20.606Z,98987.00
2022-10-12T03:14:58.406Z,98993.00
2022-10-12T03:17:56.379Z,98994.00
2022-10-12T03:20:39.702Z,98997.00
2022-10-12T03:23:19.455Z,98989.00
2022-10-12T03:26:00.626Z,98990.00
2022-10-12T03:28:40.004Z,98991.00
2022-10-12T03:31:24.114Z,99002.00
2022-10-12T03:34:08.876Z,98989.00
2022-10-12T03:36:47.190Z,98988.00
2022-10-12T03:39:41.595Z,98987.00
2022-10-12T03:42:23.065Z,98992.00
2022-10-12T03:44:57.771Z,98981.00
2022-10-12T03:47:36.701Z,98992.00
2022-10-12T03:50:19.952Z,98995.00
2022-10-12T03:52:50.889Z,98993.00
2022-10-12T03:55:29.803Z,98990.00
2022-10-12T03:58:05.451Z,98993.00
2022-10-12T04:00:49.814Z,98993.00
2022-10-12T04:03:26.702Z,98988.00
2022-10-12T04:06:45.050Z,98982.00
2022-10-12T04:09:20.904Z,98986.00
2022-10-12T04:12:05.464Z,98991.00
2022-10-12T04:15:10.183Z,98998.00
2022-10-12T04:17:57.001Z,98994.00
2022-10-12T04:21:00.101Z,98993.00
2022-10-12T04:23:39.425Z,98997.00
2022-10-12T04:45:05.389Z,98998.00
2022-10-12T04:49:17.192Z,98995.00
2022-10-12T04:52:33.487Z,98998.00
2022-10-12T04:55:55.327Z,99003.00
2022-10-12T04:59:18.390Z,99010.00
2022-10-12T05:02:40.197Z,99001.00
2022-10-12T05:17:04.282Z,98991.00
2022-10-12T05:39:54.408Z,98994.00
2022-10-12T05:43:34.059Z,98994.00
2022-10-12T05:47:28.557Z,98994.00
2022-10-12T05:51:14.921Z,98986.00
2022-10-12T05:54:51.023Z,98990.00
2022-10-12T05:58:56.354Z,98993.00
2022-10-12T06:02:31.939Z,98986.00
2022-10-12T06:05:59.174Z,98980.00
2022-10-12T06:12:08.938Z,98984.00
2022-10-12T06:14:57.009Z,98989.00
2022-10-12T06:21:33.038Z,98990.00
2022-10-12T06:24:50.219Z,98986.00
2022-10-12T06:28:03.755Z,98989.00
2022-10-12T06:31:39.618Z,98996.00
2022-10-12T06:34:27.149Z,98981.00
2022-10-12T06:37:49.727Z,98986.00
2022-10-12T06:40:38.863Z,98983.00
2022-10-12T06:43:47.085Z,98986.00
2022-10-12T06:46:32.709Z,98995.00
2022-10-12T06:49:17.525Z,98987.00
2022-10-12T06:52:00.342Z,98993.00
2022-10-12T06:54:33.478Z,98990.00
2022-10-12T06:57:14.768Z,98991.00
2022-10-12T06:59:54.356Z,98987.00
2022-10-12T07:02:47.672Z,98995.00
2022-10-12T07:05:59.929Z,98998.00
2022-10-12T07:08:39.780Z,99004.00
2022-10-12T07:11:22.594Z,99002.00
2022-10-12T07:14:10.573Z,99014.00
2022-10-12T07:17:04.584Z,99010.00
2022-10-12T07:22:23.287Z,99000.00
2022-10-12T07:24:56.886Z,99004.00
2022-10-12T07:27:49.848Z,99005.00
2022-10-12T07:30:22.169Z,99008.00
2022-10-12T07:32:55.818Z,99001.00
2022-10-12T07:35:33.526Z,99015.00
2022-10-12T07:38:23.911Z,99010.00
2022-10-12T07:40:51.455Z,99005.00
2022-10-12T07:43:18.993Z,99005.00
2022-10-12T07:45:46.321Z,99010.00
2022-10-12T07:48:13.661Z,99011.00
2022-10-12T07:50:40.994Z,99012.00
2022-10-12T07:53:08.651Z,99018.00
2022-10-12T07:55:36.005Z,99013.00
2022-10-12T07:58:03.787Z,99025.00
2022-10-12T08:00:31.584Z,99016.00
2022-10-12T08:02:59.689Z,99023.00
2022-10-12T08:05:27.680Z,99020.00
2022-10-12T08:07:55.831Z,99023.00
2022-10-12T08:10:23.584Z,99022.00
2022-10-12T08:12:52.174Z,99023.00
2022-10-12T08:15:19.732Z,99024.00
2022-10-12T08:17:47.101Z,99017.00
2022-10-12T08:20:14.734Z,99023.00
2022-10-12T08:22:42.017Z,99020.00
2022-10-12T08:25:09.540Z,99025.00
2022-10-12T08:27:38.712Z,99018.00
2022-10-12T08:30:10.365Z,99010.00
2022-10-12T08:32:37.625Z,99009.00
2022-10-12T08:35:06.437Z,99011.00
2022-10-12T08:37:33.684Z,99002.00
2022-10-12T08:40:03.500Z,99008.00
2022-10-12T08:43:21.321Z,99008.00
2022-10-12T08:45:59.665Z,99005.00
2022-10-12T08:48:48.340Z,99009.00
2022-10-12T08:51:24.727Z,99006.00
2022-10-12T08:54:10.946Z,99009.00
2022-10-12T08:56:40.256Z,99017.00
2022-10-12T08:59:16.889Z,99019.00
2022-10-12T09:02:13.534Z,99015.00
2022-10-12T09:05:08.345Z,99009.00
2022-10-12T09:07:48.845Z,99015.00
2022-10-12T09:10:46.992Z,99008.00
2022-10-12T09:14:15.863Z,99014.00
2022-10-12T09:16:48.599Z,99015.00
2022-10-12T09:19:25.202Z,99005.00
2022-10-12T09:21:52.574Z,99015.00
2022-10-12T09:24:27.053Z,99008.00
2022-10-12T09:27:03.204Z,98996.00
2022-10-12T09:29:34.561Z,99006.00
2022-10-12T09:33:27.833Z,98998.00
2022-10-12T09:35:57.521Z,99005.00
2022-10-12T09:38:24.921Z,98990.00
2022-10-12T09:40:52.239Z,99008.00
2022-10-12T09:43:19.680Z,99018.00
2022-10-12T09:45:47.910Z,99005.00
2022-10-12T09:48:24.000Z,99014.00
2022-10-12T09:51:02.332Z,98965.00
2022-10-12T09:53:48.849Z,98968.00
2022-10-12T09:56:47.939Z,99004.00
2022-10-12T09:59:36.479Z,98992.00
2022-10-12T10:02:23.413Z,99021.00
2022-10-12T10:04:52.975Z,99018.00
2022-10-12T10:07:34.543Z,99012.00
2022-10-12T10:10:10.353Z,99005.00
2022-10-12T10:13:02.995Z,99000.00
2022-10-12T10:15:39.216Z,99000.00
2022-10-12T10:18:38.962Z,98984.00
2022-10-12T10:21:14.835Z,99009.00
2022-10-12T10:23:53.709Z,98952.00
2022-10-12T10:26:24.635Z,99004.00
2022-10-12T10:29:33.423Z,99014.00
2022-10-12T10:32:26.975Z,98986.00
2022-10-12T10:35:26.852Z,99004.00
2022-10-12T10:37:56.540Z,98980.00
2022-10-12T10:40:32.226Z,98961.00
2022-10-12T10:43:16.497Z,98977.00
2022-10-12T10:45:55.767Z,98990.00
2022-10-12T10:49:01.493Z,99003.00
2022-10-12T10:51:54.717Z,98989.00
2022-10-12T10:54:32.068Z,98998.00
2022-10-12T10:57:18.637Z,98996.00
2022-10-12T11:00:26.063Z,98965.00
2022-10-12T11:03:03.310Z,98996.00
2022-10-12T11:06:16.669Z,98999.00
2022-10-12T11:08:46.478Z,98957.00
2022-10-12T11:11:26.213Z,98987.00
2022-10-12T11:14:20.756Z,98992.00
2022-10-12T11:17:02.480Z,98990.00
2022-10-12T11:20:17.323Z,98991.00
2022-10-12T11:23:04.000Z,98989.00
2022-10-12T11:26:02.768Z,98972.00
2022-10-12T11:28:33.583Z,98980.00
2022-10-12T11:31:02.641Z,98988.00
2022-10-12T11:33:42.931Z,98988.00
2022-10-12T11:36:20.019Z,98962.00
2022-10-12T11:39:06.653Z,98967.00
2022-10-12T11:42:22.234Z,98976.00
2022-10-12T11:44:47.162Z,98923.00
2022-10-12T11:47:47.248Z,98980.00
2022-10-12T11:50:42.265Z,98978.00
2022-10-12T11:53:33.071Z,98976.00
2022-10-12T11:56:25.778Z,98975.00
2022-10-12T11:59:18.826Z,98963.00
2022-10-12T12:02:17.071Z,98972.00
2022-10-12T12:04:48.288Z,98968.00
2022-10-12T12:07:47.725Z,98963.00
2022-10-12T12:10:27.627Z,98964.00
2022-10-12T12:13:18.074Z,98972.00
2022-10-12T12:15:49.607Z,98964.00
2022-10-12T12:18:28.774Z,98964.00
2022-10-12T12:21:10.319Z,98963.00
2022-10-12T12:23:57.172Z,98943.00
2022-10-12T12:26:29.918Z,98954.00
2022-10-12T12:29:27.967Z,98958.00
2022-10-12T12:32:00.098Z,98951.00
2022-10-12T12:34:29.950Z,98952.00
2022-10-12T12:36:58.499Z,98948.00
2022-10-12T12:39:33.251Z,98953.00
2022-10-12T12:42:09.014Z,98945.00
2022-10-12T12:44:44.619Z,98934.00
2022-10-12T12:47:43.445Z,98943.00
2022-10-12T12:50:22.642Z,98941.00
2022-10-12T12:52:50.461Z,98940.00
2022-10-12T12:56:19.037Z,98936.00
2022-10-12T12:59:52.844Z,98928.00
2022-10-12T13:03:48.711Z,98915.00
2022-10-12T13:07:17.122Z,98929.00
2022-10-12T13:10:27.384Z,98932.00
2022-10-12T13:13:47.451Z,98922.00
2022-10-12T13:17:32.477Z,98904.00
2022-10-12T13:20:26.510Z,98906.00
2022-10-12T13:22:58.662Z,98915.00
2022-10-12T13:25:48.220Z,98903.00
2022-10-12T13:28:34.370Z,98902.00
2022-10-12T13:31:34.768Z,98898.00
2022-10-12T13:34:24.911Z,98898.00
2022-10-12T13:37:09.819Z,98902.00
2022-10-12T13:39:49.229Z,98894.00
2022-10-12T13:42:26.481Z,98899.00
2022-10-12T13:44:54.859Z,98900.00
2022-10-12T13:47:29.037Z,98901.00
2022-10-12T13:49:57.746Z,98899.00
2022-10-12T13:52:33.925Z,98900.00
2022-10-12T13:55:14.732Z,98907.00
2022-10-12T13:57:48.498Z,98903.00
2022-10-12T14:00:25.474Z,98914.00
2022-10-12T14:03:08.554Z,98903.00
2022-10-12T14:05:45.722Z,98910.00
2022-10-12T14:08:25.929Z,98913.00
2022-10-12T14:10:57.611Z,98896.00
2022-10-12T14:13:35.001Z,98889.00
2022-10-12T14:16:05.457Z,98904.00
2022-10-12T14:18:47.095Z,98904.00
2022-10-12T14:21:36.875Z,98902.00
2022-10-12T14:24:10.893Z,98898.00
2022-10-12T14:26:42.333Z,98898.00
2022-10-12T14:29:50.740Z,98898.00
2022-10-12T14:32:24.185Z,98893.00
2022-10-12T14:35:29.355Z,98891.00
2022-10-12T14:37:58.359Z,98895.00
2022-10-12T14:40:39.431Z,98889.00
2022-10-12T14:43:14.910Z,98892.00
2022-10-12T14:45:42.240Z,98890.00
2022-10-12T14:48:23.411Z,98881.00
2022-10-12T14:50:51.469Z,98875.00
2022-10-12T14:53:18.749Z,98880.00
2022-10-12T14:55:48.523Z,98878.00
2022-10-12T14:58:18.760Z,98879.00
2022-10-12T15:00:46.230Z,98883.00
2022-10-12T15:03:13.647Z,98885.00
2022-10-12T15:05:40.932Z,98880.00
2022-10-12T15:08:09.354Z,98886.00
2022-10-12T15:10:38.093Z,98878.00
2022-10-12T15:13:05.428Z,98875.00
2022-10-12T15:15:48.239Z,98878.00
2022-10-12T15:18:15.587Z,98875.00
2022-10-12T15:20:48.267Z,98880.00
2022-10-12T15:23:16.640Z,98884.00
2022-10-12T15:25:56.725Z,98878.00
2022-10-12T15:28:24.151Z,98872.00
2022-10-12T15:31:16.033Z,98870.00
2022-10-12T15:33:42.095Z,98869.00
2022-10-12T15:36:10.373Z,98877.00
2022-10-12T15:38:37.916Z,98871.00
2022-10-12T15:41:05.867Z,98868.00
2022-10-12T15:43:35.691Z,98869.00
2022-10-12T15:46:07.901Z,98866.00
2022-10-12T15:48:35.305Z,98869.00
2022-10-12T15:51:07.229Z,98873.00
2022-10-12T15:53:34.499Z,98873.00
2022-10-12T15:56:01.761Z,98874.00
2022-10-12T15:58:29.020Z,98865.00
2022-10-12T16:00:56.593Z,98871.00
2022-10-12T16:03:26.265Z,98871.00
2022-10-12T16:05:54.600Z,98869.00
2022-10-12T16:08:21.942Z,98862.00
2022-10-12T16:10:50.298Z,98871.00
2022-10-12T16:13:17.948Z,98867.00
2022-10-12T16:15:45.273Z,98880.00
2022-10-12T16:18:15.524Z,98875.00
2022-10-12T16:20:46.681Z,98883.00
2022-10-12T16:23:33.497Z,98870.00
2022-10-12T16:26:09.159Z,98878.00
2022-10-12T16:28:37.990Z,98884.00
2022-10-12T16:31:17.480Z,98879.00
2022-10-12T16:33:45.226Z,98891.00
2022-10-12T16:36:16.324Z,98875.00
2022-10-12T16:38:44.635Z,98895.00
2022-10-12T16:41:16.412Z,98885.00
2022-10-12T16:43:44.577Z,98888.00
2022-10-12T16:46:11.978Z,98890.00
2022-10-12T16:48:39.388Z,98897.00
2022-10-12T16:51:11.367Z,98900.00
2022-10-12T16:53:38.949Z,98892.00
2022-10-12T16:56:06.676Z,98893.00
2022-10-12T16:58:34.112Z,98901.00
2022-10-12T17:01:13.471Z,98896.00
2022-10-12T17:03:41.332Z,98898.00
2022-10-12T17:06:09.622Z,98903.00
2022-10-12T17:08:39.107Z,98902.00
2022-10-12T17:11:16.926Z,98905.00
2022-10-12T17:13:48.826Z,98906.00
2022-10-12T17:16:40.924Z,98907.00
2022-10-12T17:19:08.557Z,98910.00
2022-10-12T17:21:41.918Z,98896.00
2022-10-12T17:24:12.249Z,98856.00
2022-10-12T17:26:41.120Z,98864.00
2022-10-12T17:29:17.099Z,98877.00
2022-10-12T17:31:46.743Z,98911.00
2022-10-12T17:34:34.721Z,98863.00
2022-10-12T17:37:04.240Z,98912.00
2022-10-12T17:39:38.547Z,98877.00
2022-10-12T17:42:06.924Z,98923.00
2022-10-12T17:44:35.675Z,98933.00
2022-10-12T17:47:03.125Z,98913.00
2022-10-12T17:49:30.609Z,98907.00
2022-10-12T17:51:58.083Z,98899.00
2022-10-12T17:54:27.533Z,98919.00
2022-10-12T17:56:56.345Z,98952.00
2022-10-12T17:59:24.932Z,98952.00
2022-10-12T18:01:55.873Z,98911.00
2022-10-12T18:04:23.207Z,98875.00
2022-10-12T18:06:50.758Z,98946.00
2022-10-12T18:09:18.142Z,98894.00
2022-10-12T18:11:45.521Z,98906.00
2022-10-12T18:14:13.605Z,98948.00
2022-10-12T18:16:41.824Z,98933.00
2022-10-12T18:19:13.880Z,98961.00
2022-10-12T18:21:41.352Z,98918.00
2022-10-12T18:24:16.988Z,98967.00
2022-10-12T18:26:47.547Z,98924.00
2022-10-12T18:29:15.219Z,98927.00
2022-10-12T18:31:42.790Z,98946.00
2022-10-12T18:34:10.563Z,98949.00
2022-10-12T18:36:39.560Z,98973.00
2022-10-12T18:39:06.915Z,98914.00
2022-10-12T18:41:34.345Z,98964.00
2022-10-12T18:44:03.589Z,98929.00
2022-10-12T18:46:36.663Z,98931.00
2022-10-12T18:49:08.362Z,98989.00
2022-10-12T18:51:43.118Z,98950.00
2022-10-12T18:54:13.999Z,98969.00
2022-10-12T18:56:41.905Z,98947.00
2022-10-12T18:59:12.761Z,98968.00
2022-10-12T19:01:40.056Z,98964.00
2022-10-12T19:04:07.750Z,98937.00
2022-10-12T19:06:42.133Z,98920.00
2022-10-12T19:09:13.818Z,98926.00
2022-10-12T19:11:41.770Z,98914.00
2022-10-12T19:14:16.394Z,98958.00
2022-10-12T19:16:44.849Z,98952.00
2022-10-12T19:19:20.929Z,98966.00
2022-10-12T19:21:53.843Z,98908.00
2022-10-12T19:24:21.954Z,98902.00
2022-10-12T19:26:49.498Z,98911.00
2022-10-12T19:29:17.072Z,98906.00
2022-10-12T19:31:49.753Z,98915.00
2022-10-12T19:34:21.478Z,98922.00
2022-10-12T19:36:49.313Z,98960.00
2022-10-12T19:39:23.027Z,98936.00
2022-10-12T19:41:52.984Z,98930.00
2022-10-12T19:44:21.178Z,98949.00
2022-10-12T19:46:48.857Z,98938.00
2022-10-12T19:49:18.567Z,98935.00
2022-10-12T19:51:47.113Z,98942.00
2022-10-12T19:54:16.022Z,98972.00
2022-10-12T19:56:43.334Z,98993.00
2022-10-12T19:59:10.953Z,98990.00
2022-10-12T20:01:39.882Z,98940.00
2022-10-12T20:04:12.966Z,98912.00
2022-10-12T20:06:41.057Z,98983.00
2022-10-12T20:09:09.650Z,98946.00
2022-10-12T20:11:39.098Z,98997.00
2022-10-12T20:14:07.506Z,98938.00
2022-10-12T20:16:35.525Z,98992.00
2022-10-12T20:19:05.156Z,98964.00
2022-10-12T20:21:32.675Z,98968.00
2022-10-12T20:24:00.058Z,98951.00
2022-10-12T20:26:28.767Z,98970.00
2022-10-12T20:28:56.227Z,98956.00
2022-10-12T20:31:24.692Z,98966.00
2022-10-12T20:33:55.446Z,98950.00
2022-10-12T20:36:31.215Z,98972.00
2022-10-12T20:38:59.825Z,98954.00
2022-10-12T20:41:28.186Z,98978.00
2022-10-12T20:43:59.549Z,98963.00
2022-10-12T20:46:29.607Z,98972.00
2022-10-12T20:49:01.438Z,98947.00
2022-10-12T20:51:36.395Z,98951.00
2022-10-12T20:54:05.754Z,98952.00
2022-10-12T20:56:34.235Z,98939.00
2022-10-12T20:59:01.991Z,98951.00
2022-10-12T21:01:29.415Z,98938.00
2022-10-12T21:03:57.262Z,98934.00
2022-10-12T21:06:25.073Z,98923.00
2022-10-12T21:08:57.042Z,98962.00
2022-10-12T21:11:25.320Z,98968.00
2022-10-12T21:13:52.958Z,98923.00
2022-10-12T21:16:20.317Z,98986.00
2022-10-12T21:18:47.942Z,98927.00
2022-10-12T21:21:20.136Z,98957.00
2022-10-12T21:24:00.710Z,98940.00
2022-10-12T21:26:30.932Z,98959.00
2022-10-12T21:29:00.209Z,98948.00
2022-10-12T21:31:32.423Z,98951.00
2022-10-12T21:34:07.630Z,98980.00
2022-10-12T21:36:37.074Z,98915.00
2022-10-12T21:39:12.802Z,98915.00
2022-10-12T21:41:40.661Z,98973.00
2022-10-12T21:44:08.281Z,98929.00
2022-10-12T21:46:36.772Z,98922.00
2022-10-12T21:49:07.932Z,98928.00
2022-10-12T21:51:36.887Z,98929.00
2022-10-12T21:54:07.956Z,98935.00
2022-10-12T21:56:37.489Z,98920.00
2022-10-12T21:59:06.669Z,98914.00
2022-10-12T22:01:40.219Z,98921.00
2022-10-12T22:04:14.052Z,98951.00
2022-10-12T22:06:43.184Z,98902.00
2022-10-12T22:09:16.882Z,98934.00
2022-10-12T22:11:46.514Z,98916.00
2022-10-12T22:14:18.465Z,98959.00
2022-10-12T22:16:51.045Z,98899.00
2022-10-12T22:19:19.466Z,98945.00
2022-10-12T22:21:51.317Z,98966.00
2022-10-12T22:24:20.606Z,98893.00
2022-10-12T22:26:48.207Z,98955.00
2022-10-12T22:29:15.583Z,98962.00
2022-10-12T22:31:44.395Z,98933.00
2022-10-12T22:34:11.830Z,98952.00
2022-10-12T22:36:39.144Z,98887.00
2022-10-12T22:39:06.511Z,98925.00
2022-10-12T22:41:33.803Z,98920.00
2022-10-12T22:44:02.074Z,98906.00
2022-10-12T22:46:29.398Z,98922.00
2022-10-12T22:48:56.843Z,98907.00
2022-10-12T22:51:36.328Z,98895.00
2022-10-12T22:54:04.112Z,98892.00
2022-10-12T22:56:31.903Z,98944.00
2022-10-12T22:59:03.892Z,98913.00
2022-10-12T23:01:31.232Z,98909.00
2022-10-12T23:03:58.517Z,98906.00
2022-10-12T23:06:26.108Z,98902.00
2022-10-12T23:08:53.981Z,98894.00
2022-10-12T23:11:27.084Z,98915.00
2022-10-12T23:13:56.618Z,98893.00
2022-10-12T23:16:29.852Z,98888.00
2022-10-12T23:19:02.513Z,98908.00
2022-10-12T23:21:33.455Z,98896.00
2022-10-12T23:24:04.801Z,98895.00
2022-10-12T23:26:32.625Z,98906.00
2022-10-12T23:29:00.422Z,98936.00
2022-10-12T23:31:30.671Z,98885.00
2022-10-12T23:34:03.157Z,98873.00
2022-10-12T23:36:31.288Z,98914.00
2022-10-12T23:39:02.205Z,98912.00
2022-10-12T23:41:29.546Z,98919.00
2022-10-12T23:43:57.039Z,98914.00
2022-10-12T23:46:24.414Z,98914.00
2022-10-12T23:48:51.687Z,98960.00
2022-10-12T23:51:18.983Z,98901.00
2022-10-12T23:53:46.284Z,98894.00
2022-10-12T23:56:13.720Z,98945.00
2022-10-12T23:58:41.171Z,98926.00
